createdAt,value
2019-01-14T00:00:27.090Z,18.30
2019-01-14T00:02:58.596Z,23.87
2019-01-14T00:05:27.883Z,18.27
2019-01-14T00:07:57.130Z,20.43
2019-01-14T00:10:26.406Z,26.40
2019-01-14T00:12:55.650Z,18.27
2019-01-14T00:15:24.918Z,19.37
2019-01-14T00:17:55.235Z,25.03
2019-01-14T00:20:24.508Z,28.93
2019-01-14T00:22:53.745Z,16.37
2019-01-14T00:25:23.016Z,17.93
2019-01-14T00:27:52.258Z,18.80
2019-01-14T00:30:21.525Z,24.37
2019-01-14T00:32:50.708Z,18.03
2019-01-14T00:35:20.024Z,16.83
2019-01-14T00:37:49.240Z,17.47
2019-01-14T00:40:18.498Z,26.63
2019-01-14T00:42:47.823Z,25.40
2019-01-14T00:45:17.094Z,24.30
2019-01-14T00:47:46.903Z,16.23
2019-01-14T00:50:16.170Z,15.97
2019-01-14T00:52:45.483Z,19.00
2019-01-14T00:55:14.756Z,21.20
2019-01-14T00:57:44.006Z,21.80
2019-01-14T01:00:18.785Z,23.07
2019-01-14T01:02:48.309Z,18.23
2019-01-14T01:05:17.645Z,22.97
2019-01-14T01:07:46.817Z,15.57
2019-01-14T01:10:17.226Z,19.50
2019-01-14T01:12:46.472Z,25.80
2019-01-14T01:15:16.079Z,23.17
2019-01-14T01:17:45.326Z,26.27
2019-01-14T01:20:17.115Z,21.50
2019-01-14T01:22:46.664Z,21.67
2019-01-14T01:25:15.909Z,19.30
2019-01-14T01:27:45.181Z,19.97
2019-01-14T01:30:16.070Z,13.53
2019-01-14T01:32:45.337Z,25.73
2019-01-14T01:35:14.726Z,21.40
2019-01-14T01:37:44.005Z,30.27
2019-01-14T01:40:15.790Z,27.60
2019-01-14T01:42:45.132Z,25.60
2019-01-14T01:45:15.023Z,24.67
2019-01-14T01:47:44.294Z,23.77
2019-01-14T01:50:15.580Z,24.47
2019-01-14T01:52:44.927Z,24.80
2019-01-14T01:55:14.180Z,29.60
2019-01-14T01:57:43.452Z,27.57
2019-01-14T02:00:15.710Z,14.87
2019-01-14T02:02:45.051Z,28.20
2019-01-14T02:05:14.826Z,28.63
2019-01-14T02:07:44.102Z,26.37
2019-01-14T02:10:16.090Z,26.57
2019-01-14T02:12:45.429Z,23.60
2019-01-14T02:15:16.822Z,27.73
2019-01-14T02:17:46.094Z,41.90
2019-01-14T02:20:18.759Z,34.33
2019-01-14T02:22:48.030Z,23.40
2019-01-14T02:25:18.346Z,34.37
2019-01-14T02:27:47.609Z,23.00
2019-01-14T02:30:18.627Z,30.40
2019-01-14T02:32:47.895Z,26.77
2019-01-14T02:35:17.149Z,31.27
2019-01-14T02:37:46.443Z,20.33
2019-01-14T02:40:19.342Z,26.50
2019-01-14T02:42:48.609Z,34.60
2019-01-14T02:45:17.950Z,25.97
2019-01-14T02:47:47.226Z,35.40
2019-01-14T02:50:16.543Z,25.23
2019-01-14T02:52:45.813Z,26.20
2019-01-14T02:55:16.161Z,33.77
2019-01-14T02:57:45.434Z,25.70
2019-01-14T03:00:17.867Z,37.10
2019-01-14T03:02:47.139Z,26.00
2019-01-14T03:05:16.414Z,35.47
2019-01-14T03:07:45.746Z,28.20
2019-01-14T03:10:14.993Z,24.40
2019-01-14T03:12:44.262Z,32.10
2019-01-14T03:15:15.447Z,26.10
2019-01-14T03:17:44.723Z,24.83
2019-01-14T03:20:15.905Z,32.13
2019-01-14T03:22:45.176Z,31.73
2019-01-14T03:25:14.692Z,32.10
2019-01-14T03:27:43.957Z,36.30
2019-01-14T03:30:15.449Z,27.93
2019-01-14T03:32:45.792Z,25.30
2019-01-14T03:35:15.043Z,28.20
2019-01-14T03:37:44.393Z,24.83
2019-01-14T03:40:15.175Z,25.63
2019-01-14T03:42:44.444Z,30.10
2019-01-14T03:45:14.259Z,30.30
2019-01-14T03:47:43.532Z,26.03
2019-01-14T03:50:17.801Z,19.90
2019-01-14T03:55:34.015Z,24.47
2019-01-14T03:58:03.293Z,26.37
2019-01-14T04:00:32.555Z,29.27
2019-01-14T04:03:01.827Z,29.10
2019-01-14T04:05:31.083Z,22.43
2019-01-14T04:08:00.361Z,28.67
2019-01-14T04:10:29.614Z,27.10
2019-01-14T04:12:58.892Z,23.20
2019-01-14T04:15:28.166Z,22.57
2019-01-14T04:17:57.898Z,31.03
2019-01-14T04:20:27.162Z,26.13
2019-01-14T04:22:56.408Z,28.93
2019-01-14T04:25:25.675Z,16.23
2019-01-14T04:27:54.924Z,19.60
2019-01-14T04:30:24.188Z,25.77
2019-01-14T04:32:53.437Z,24.57
2019-01-14T04:35:22.698Z,23.93
2019-01-14T04:37:51.956Z,30.37
2019-01-14T04:40:21.225Z,23.90
2019-01-14T04:42:50.465Z,28.87
2019-01-14T04:45:19.760Z,25.90
2019-01-14T04:47:49.001Z,33.00
2019-01-14T04:50:20.237Z,30.83
2019-01-14T04:52:50.451Z,43.47
2019-01-14T04:55:19.723Z,15.90
2019-01-14T04:57:49.043Z,39.20
2019-01-14T05:00:23.156Z,40.17
2019-01-14T05:03:15.073Z,28.40
2019-01-14T05:05:44.258Z,29.97
2019-01-14T05:08:13.511Z,18.23
2019-01-14T05:10:42.787Z,28.60
2019-01-14T05:13:12.041Z,27.33
2019-01-14T05:15:41.310Z,19.17
2019-01-14T05:18:10.559Z,28.87
2019-01-14T05:20:39.833Z,31.17
2019-01-14T05:23:09.084Z,31.53
2019-01-14T05:25:38.346Z,25.27
2019-01-14T05:28:07.597Z,24.63
2019-01-14T05:30:36.859Z,24.40
2019-01-14T05:33:06.109Z,43.07
2019-01-14T05:35:35.474Z,19.77
2019-01-14T05:38:04.719Z,30.57
2019-01-14T05:40:33.983Z,34.63
2019-01-14T05:43:03.242Z,40.47
2019-01-14T05:45:32.522Z,20.23
2019-01-14T05:48:01.767Z,22.00
2019-01-14T05:50:31.040Z,24.33
2019-01-14T05:53:00.285Z,23.37
2019-01-14T05:55:29.557Z,26.47
2019-01-14T05:57:58.813Z,25.47
2019-01-14T06:00:32.059Z,30.40
2019-01-14T06:03:01.321Z,35.70
2019-01-14T06:05:30.587Z,23.50
2019-01-14T06:07:59.831Z,21.03
2019-01-14T06:10:29.113Z,29.20
2019-01-14T06:12:58.360Z,21.30
2019-01-14T06:15:27.634Z,29.87
2019-01-14T06:17:56.968Z,30.17
2019-01-14T06:20:27.891Z,21.90
2019-01-14T06:22:57.143Z,22.90
2019-01-14T06:25:26.427Z,28.47
2019-01-14T06:27:55.688Z,27.13
2019-01-14T06:30:29.618Z,28.67
2019-01-14T06:32:58.870Z,33.70
2019-01-14T06:35:28.315Z,19.67
2019-01-14T06:37:57.584Z,21.93
2019-01-14T06:40:26.858Z,16.97
2019-01-14T06:42:57.187Z,16.50
2019-01-14T06:45:26.453Z,18.10
2019-01-14T06:47:55.631Z,22.23
2019-01-14T06:50:24.902Z,18.17
2019-01-14T06:52:54.150Z,17.23
2019-01-14T06:55:23.427Z,15.53
2019-01-14T06:57:52.679Z,22.77
2019-01-14T07:00:23.789Z,21.80
2019-01-14T07:02:53.039Z,25.70
2019-01-14T07:05:22.391Z,21.73
2019-01-14T07:07:51.708Z,13.17
2019-01-14T07:10:25.947Z,25.37
2019-01-14T07:12:55.195Z,19.90
2019-01-14T07:15:25.435Z,14.80
2019-01-14T07:17:54.689Z,22.80
2019-01-14T07:20:23.962Z,19.37
2019-01-14T07:22:53.241Z,19.70
2019-01-14T07:25:22.489Z,14.93
2019-01-14T07:27:51.762Z,22.57
2019-01-14T07:30:22.355Z,16.97
2019-01-14T07:32:51.622Z,16.90
2019-01-14T07:35:20.876Z,13.67
2019-01-14T07:37:50.142Z,21.60
2019-01-14T07:40:19.858Z,20.10
2019-01-14T07:42:49.143Z,14.77
2019-01-14T07:45:18.933Z,13.57
2019-01-14T07:47:48.211Z,21.37
2019-01-14T07:50:18.194Z,23.87
2019-01-14T07:52:47.599Z,16.87
2019-01-14T07:55:17.818Z,10.30
2019-01-14T07:57:47.173Z,17.03
2019-01-14T08:00:18.963Z,17.93
2019-01-14T08:02:48.237Z,14.57
2019-01-14T08:05:17.550Z,22.03
2019-01-14T08:07:46.831Z,10.97
2019-01-14T08:10:16.090Z,16.13
2019-01-14T08:12:45.367Z,14.77
2019-01-14T08:15:16.760Z,13.00
2019-01-14T08:17:46.037Z,8.87
2019-01-14T08:20:15.282Z,10.63
2019-01-14T08:22:44.564Z,11.83
2019-01-14T08:25:14.922Z,17.37
2019-01-14T08:27:44.114Z,9.53
2019-01-14T08:30:18.355Z,9.23
2019-01-14T08:32:47.618Z,17.27
2019-01-14T08:35:16.870Z,8.93
2019-01-14T08:37:46.147Z,14.90
2019-01-14T08:40:16.741Z,10.90
2019-01-14T08:42:46.013Z,7.53
2019-01-14T08:45:16.233Z,8.20
2019-01-14T08:47:45.500Z,18.53
2019-01-14T08:50:16.903Z,4.87
2019-01-14T08:52:47.135Z,9.90
2019-01-14T08:55:16.383Z,6.73
2019-01-14T08:57:45.647Z,10.37
2019-01-14T09:00:18.161Z,10.00
2019-01-14T09:02:47.506Z,7.77
2019-01-14T09:05:16.755Z,11.70
2019-01-14T09:07:46.026Z,8.67
2019-01-14T09:10:21.134Z,9.13
2019-01-14T09:12:50.399Z,7.37
2019-01-14T09:15:19.641Z,8.37
2019-01-14T09:17:48.921Z,8.27
2019-01-14T09:20:22.220Z,9.77
2019-01-14T09:22:51.500Z,13.83
2019-01-14T09:25:20.750Z,7.43
2019-01-14T09:27:50.035Z,7.57
2019-01-14T09:30:21.486Z,7.53
2019-01-14T09:32:50.777Z,11.27
2019-01-14T09:35:20.023Z,9.53
2019-01-14T09:37:50.367Z,12.33
2019-01-14T09:40:21.518Z,7.57
2019-01-14T09:42:50.807Z,13.53
2019-01-14T09:45:20.051Z,13.43
2019-01-14T09:47:49.346Z,9.53
2019-01-14T09:50:18.590Z,8.00
2019-01-14T09:52:47.879Z,13.03
2019-01-14T09:55:18.375Z,10.73
2019-01-14T09:57:48.624Z,15.03
2019-01-14T10:00:17.868Z,6.10
2019-01-14T10:02:47.137Z,7.67
2019-01-14T10:05:17.618Z,6.37
2019-01-14T10:07:46.838Z,10.37
2019-01-14T10:10:17.627Z,6.77
2019-01-14T10:12:46.912Z,12.93
2019-01-14T10:15:23.501Z,7.87
2019-01-14T10:17:57.173Z,13.53
2019-01-14T10:20:26.497Z,9.10
2019-01-14T10:22:55.830Z,11.20
2019-01-14T10:25:25.085Z,8.90
2019-01-14T10:27:54.364Z,10.10
2019-01-14T10:30:23.631Z,7.63
2019-01-14T10:32:52.879Z,9.13
2019-01-14T10:35:22.221Z,13.53
2019-01-14T10:37:51.539Z,9.23
2019-01-14T10:40:20.814Z,9.13
2019-01-14T10:42:50.072Z,9.37
2019-01-14T10:45:21.479Z,10.73
2019-01-14T10:47:50.745Z,10.10
2019-01-14T10:50:20.024Z,13.83
2019-01-14T10:52:49.341Z,9.30
2019-01-14T10:55:18.615Z,10.77
2019-01-14T10:57:48.140Z,11.57
2019-01-14T11:00:25.434Z,10.87
2019-01-14T11:02:54.970Z,14.27
2019-01-14T11:05:28.428Z,11.03
2019-01-14T11:07:57.748Z,10.30
2019-01-14T11:10:27.027Z,8.40
2019-01-14T11:12:56.279Z,6.70
2019-01-14T11:15:25.546Z,9.63
2019-01-14T11:17:54.791Z,13.93
2019-01-14T11:20:26.369Z,9.23
2019-01-14T11:22:55.691Z,7.33
2019-01-14T11:25:25.018Z,8.63
2019-01-14T11:27:54.266Z,16.33
2019-01-14T11:30:26.435Z,12.23
2019-01-14T11:32:55.686Z,15.30
2019-01-14T11:35:24.953Z,14.43
2019-01-14T11:37:54.210Z,16.03
2019-01-14T11:40:25.931Z,13.70
2019-01-14T11:42:55.182Z,19.00
2019-01-14T11:45:25.519Z,9.80
2019-01-14T11:47:54.766Z,18.90
2019-01-14T11:50:24.037Z,11.60
2019-01-14T11:52:54.298Z,17.70
2019-01-14T11:55:23.570Z,11.10
2019-01-14T11:57:52.822Z,18.63
2019-01-14T12:00:23.959Z,12.77
2019-01-14T12:02:53.274Z,7.10
2019-01-14T12:05:22.610Z,6.93
2019-01-14T12:07:51.855Z,5.73
2019-01-14T12:10:21.125Z,13.60
2019-01-14T12:12:50.446Z,11.20
2019-01-14T12:15:24.417Z,10.30
2019-01-14T12:17:53.662Z,6.03
2019-01-14T12:20:23.003Z,10.40
2019-01-14T12:22:52.258Z,14.80
2019-01-14T12:25:21.527Z,8.33
2019-01-14T12:27:50.767Z,8.87
2019-01-14T12:30:25.850Z,10.87
2019-01-14T12:32:55.097Z,11.97
2019-01-14T12:35:24.375Z,10.33
2019-01-14T12:37:53.622Z,10.17
2019-01-14T12:40:24.948Z,9.83
2019-01-14T12:42:53.778Z,7.07
2019-01-14T12:45:23.042Z,13.60
2019-01-14T12:47:52.295Z,12.47
2019-01-14T12:50:23.109Z,9.33
2019-01-14T12:52:52.526Z,10.43
2019-01-14T12:55:21.781Z,15.33
2019-01-14T12:57:51.067Z,14.70
2019-01-14T13:00:28.014Z,12.90
2019-01-14T13:02:58.712Z,14.70
2019-01-14T13:05:30.107Z,13.43
2019-01-14T13:07:59.363Z,10.03
2019-01-14T13:10:28.631Z,16.47
2019-01-14T13:12:57.900Z,13.40
2019-01-14T13:15:27.314Z,8.10
2019-01-14T13:17:56.585Z,15.50
2019-01-14T13:20:25.829Z,12.20
2019-01-14T13:22:55.102Z,9.77
2019-01-14T13:25:24.273Z,6.27
2019-01-14T13:27:53.541Z,9.57
2019-01-14T13:30:25.543Z,12.50
2019-01-14T13:32:54.756Z,8.10
2019-01-14T13:35:24.002Z,17.63
2019-01-14T13:37:53.278Z,12.90
2019-01-14T13:40:22.523Z,10.53
2019-01-14T13:42:53.233Z,8.20
2019-01-14T13:45:23.219Z,15.30
2019-01-14T13:47:52.562Z,9.57
2019-01-14T13:50:25.946Z,19.47
2019-01-14T13:52:55.214Z,10.47
2019-01-14T13:55:24.466Z,10.87
2019-01-14T13:57:53.743Z,10.23
2019-01-14T14:00:24.603Z,12.10
2019-01-14T14:02:53.961Z,10.20
2019-01-14T14:05:23.218Z,10.33
2019-01-14T14:07:52.498Z,7.53
2019-01-14T14:10:28.702Z,14.30
2019-01-14T14:12:57.987Z,10.10
2019-01-14T14:15:27.242Z,27.47
2019-01-14T14:17:56.762Z,11.37
2019-01-14T14:20:26.078Z,10.13
2019-01-14T14:22:55.387Z,11.50
2019-01-14T14:25:24.710Z,12.77
2019-01-14T14:27:53.981Z,7.97
2019-01-14T14:30:31.770Z,11.37
2019-01-14T14:33:01.110Z,18.00
2019-01-14T14:35:30.362Z,11.30
2019-01-14T14:38:01.229Z,16.60
2019-01-14T14:40:30.522Z,13.93
2019-01-14T14:42:59.795Z,10.30
2019-01-14T14:45:29.057Z,15.40
2019-01-14T14:47:58.343Z,9.00
2019-01-14T14:50:27.590Z,4.50
2019-01-14T14:52:56.874Z,11.37
2019-01-14T14:55:26.114Z,4.20
2019-01-14T14:57:55.383Z,11.57
2019-01-14T15:00:24.627Z,9.80
2019-01-14T15:02:53.968Z,5.03
2019-01-14T15:05:23.219Z,16.10
2019-01-14T15:07:52.494Z,11.60
2019-01-14T15:10:21.818Z,6.53
2019-01-14T15:12:51.083Z,11.83
2019-01-14T15:15:22.220Z,5.33
2019-01-14T15:17:51.466Z,8.40
2019-01-14T15:20:22.089Z,15.17
2019-01-14T15:22:51.368Z,10.60
2019-01-14T15:25:20.612Z,7.03
2019-01-14T15:27:49.950Z,21.30
2019-01-14T15:30:22.110Z,13.33
2019-01-14T15:32:51.334Z,13.20
2019-01-14T15:35:20.661Z,18.33
2019-01-14T15:37:49.909Z,9.47
2019-01-14T15:40:20.047Z,17.10
2019-01-14T15:42:49.296Z,14.83
2019-01-14T15:45:20.634Z,16.77
2019-01-14T15:47:49.885Z,15.43
2019-01-14T15:50:19.170Z,10.23
2019-01-14T15:52:48.418Z,11.90
2019-01-14T15:55:20.135Z,23.03
2019-01-14T15:57:49.395Z,11.93
2019-01-14T16:00:19.235Z,12.30
2019-01-14T16:02:48.479Z,10.07
2019-01-14T16:05:18.804Z,13.37
2019-01-14T16:07:48.068Z,12.03
2019-01-14T16:10:19.378Z,15.30
2019-01-14T16:12:48.628Z,14.30
2019-01-14T16:15:17.962Z,12.07
2019-01-14T16:17:47.210Z,11.73
2019-01-14T16:20:18.794Z,13.20
2019-01-14T16:22:48.111Z,13.67
2019-01-14T16:25:17.382Z,14.73
2019-01-14T16:27:46.628Z,13.77
2019-01-14T16:30:18.053Z,14.53
2019-01-14T16:32:47.302Z,17.83
2019-01-14T16:35:16.574Z,12.03
2019-01-14T16:37:45.822Z,21.80
2019-01-14T16:40:18.314Z,15.03
2019-01-14T16:42:45.961Z,17.30
2019-01-14T16:45:17.575Z,13.30
2019-01-14T16:47:46.817Z,20.53
2019-01-14T16:50:16.540Z,21.80
2019-01-14T16:52:47.487Z,13.67
2019-01-14T16:55:18.420Z,11.87
2019-01-14T16:58:05.183Z,19.10
2019-01-14T17:00:34.454Z,13.40
2019-01-14T17:03:03.698Z,15.23
2019-01-14T17:05:32.979Z,17.77
2019-01-14T17:08:02.226Z,15.20
2019-01-14T17:10:44.483Z,12.20
2019-01-14T17:13:15.459Z,16.33
2019-01-14T17:15:44.726Z,17.50
2019-01-14T17:18:14.046Z,14.13
2019-01-14T17:20:43.318Z,15.90
2019-01-14T17:23:12.641Z,13.37
2019-01-14T17:25:41.916Z,25.10
2019-01-14T17:28:11.169Z,16.97
2019-01-14T17:30:40.448Z,16.43
2019-01-14T17:33:09.694Z,19.07
2019-01-14T17:35:38.965Z,17.33
2019-01-14T17:38:08.213Z,11.63
2019-01-14T17:40:37.554Z,16.50
2019-01-14T17:43:06.878Z,12.17
2019-01-14T17:45:36.529Z,13.37
2019-01-14T17:48:05.778Z,23.27
2019-01-14T17:50:36.067Z,19.73
2019-01-14T17:53:05.635Z,9.77
2019-01-14T17:55:36.313Z,18.90
2019-01-14T17:58:05.567Z,18.10
2019-01-14T18:00:34.838Z,12.47
2019-01-14T18:03:05.157Z,14.47
2019-01-14T18:05:34.422Z,23.03
2019-01-14T18:08:03.677Z,23.07
2019-01-14T18:10:39.704Z,17.43
2019-01-14T18:13:03.859Z,18.20
2019-01-14T18:15:33.131Z,24.80
2019-01-14T18:18:02.495Z,20.87
2019-01-14T18:20:31.752Z,14.10
2019-01-14T18:23:01.022Z,15.70
2019-01-14T18:25:30.270Z,15.50
2019-01-14T18:27:59.736Z,23.00
2019-01-14T18:30:28.990Z,13.40
2019-01-14T18:32:58.258Z,17.70
2019-01-14T18:35:28.579Z,21.43
2019-01-14T18:37:57.854Z,17.40
2019-01-14T18:40:33.487Z,17.60
2019-01-14T18:42:57.994Z,13.73
2019-01-14T18:45:27.241Z,19.43
2019-01-14T18:47:56.439Z,18.00
2019-01-14T18:50:25.623Z,25.10
2019-01-14T18:52:55.752Z,15.47
2019-01-14T18:55:25.001Z,22.73
2019-01-14T18:57:54.334Z,28.13
2019-01-14T19:00:23.529Z,18.63
2019-01-14T19:02:53.166Z,19.00
2019-01-14T19:05:22.352Z,24.63
2019-01-14T19:07:51.617Z,20.73
2019-01-14T19:10:20.879Z,16.87
2019-01-14T19:12:50.154Z,16.13
2019-01-14T19:15:20.747Z,9.57
2019-01-14T19:17:50.039Z,17.13
2019-01-14T19:20:24.307Z,21.30
2019-01-14T19:22:53.573Z,23.10
2019-01-14T19:25:22.832Z,20.40
2019-01-14T19:27:52.587Z,23.63
2019-01-14T19:30:21.966Z,14.70
2019-01-14T19:32:51.299Z,21.50
2019-01-14T19:35:20.550Z,16.77
2019-01-14T19:37:50.919Z,16.10
2019-01-14T19:40:20.175Z,17.83
2019-01-14T19:42:50.314Z,15.73
2019-01-14T19:45:20.203Z,14.97
2019-01-14T19:47:49.478Z,22.87
2019-01-14T19:50:20.467Z,11.33
2019-01-14T19:52:49.752Z,12.53
2019-01-14T19:55:18.991Z,16.33
2019-01-14T19:57:48.271Z,20.50
2019-01-14T20:00:20.264Z,20.30
2019-01-14T20:02:49.603Z,16.77
2019-01-14T20:05:18.856Z,24.93
2019-01-14T20:07:49.699Z,21.17
2019-01-14T20:10:18.937Z,18.83
2019-01-14T20:12:48.219Z,17.60
2019-01-14T20:15:19.962Z,23.47
2019-01-14T20:17:49.272Z,22.83
2019-01-14T20:20:18.549Z,17.17
2019-01-14T20:22:47.871Z,19.30
2019-01-14T20:25:17.310Z,24.30
2019-01-14T20:27:46.566Z,9.60
2019-01-14T20:30:20.367Z,16.27
2019-01-14T20:32:49.683Z,23.33
2019-01-14T20:35:19.041Z,15.03
2019-01-14T20:37:48.290Z,14.03
2019-01-14T20:40:17.576Z,20.53
2019-01-14T20:42:46.826Z,19.73
2019-01-14T20:45:17.147Z,16.80
2019-01-14T20:47:46.403Z,19.57
2019-01-14T20:50:18.385Z,17.10
2019-01-14T20:52:47.698Z,14.40
2019-01-14T20:55:16.982Z,14.97
2019-01-14T20:57:46.239Z,13.07
2019-01-14T21:00:21.562Z,13.97
2019-01-14T21:02:50.891Z,15.93
2019-01-14T21:05:20.793Z,12.87
2019-01-14T21:07:50.187Z,19.77
2019-01-14T21:10:19.527Z,17.60
2019-01-14T21:12:48.778Z,21.33
2019-01-14T21:15:18.047Z,17.07
2019-01-14T21:17:47.297Z,19.97
2019-01-14T21:20:28.863Z,21.27
2019-01-14T21:22:58.185Z,17.53
2019-01-14T21:25:27.458Z,11.67
2019-01-14T21:27:56.707Z,22.70
2019-01-14T21:30:26.057Z,20.73
2019-01-14T21:32:55.313Z,17.30
2019-01-14T21:35:24.579Z,24.07
2019-01-14T21:37:53.822Z,14.83
2019-01-14T21:40:23.097Z,17.73
2019-01-14T21:42:52.270Z,15.13
2019-01-14T21:45:21.906Z,22.80
2019-01-14T21:47:51.290Z,16.13
2019-01-14T21:50:21.032Z,18.50
2019-01-14T21:52:50.281Z,18.70
2019-01-14T21:55:21.282Z,16.97
2019-01-14T21:57:50.553Z,21.23
2019-01-14T22:00:21.554Z,12.20
2019-01-14T22:02:50.807Z,18.70
2019-01-14T22:05:20.086Z,19.27
2019-01-14T22:07:49.338Z,16.83
2019-01-14T22:10:23.935Z,15.00
2019-01-14T22:12:53.200Z,20.87
2019-01-14T22:15:22.471Z,14.97
2019-01-14T22:17:51.724Z,15.23
2019-01-14T22:20:25.844Z,22.53
2019-01-14T22:22:55.093Z,14.07
2019-01-14T22:25:24.374Z,17.57
2019-01-14T22:27:53.621Z,19.97
2019-01-14T22:30:28.384Z,15.93
2019-01-14T22:32:57.642Z,17.73
2019-01-14T22:35:26.917Z,15.37
2019-01-14T22:37:56.159Z,17.73
2019-01-14T22:40:25.452Z,14.90
2019-01-14T22:42:54.693Z,18.40
2019-01-14T22:45:23.886Z,19.97
2019-01-14T22:47:53.137Z,14.23
2019-01-14T22:50:22.402Z,14.67
2019-01-14T22:52:52.818Z,21.23
2019-01-14T22:55:22.086Z,11.00
2019-01-14T22:57:51.354Z,12.93
2019-01-14T23:00:40.213Z,17.37
2019-01-14T23:03:09.970Z,15.83
2019-01-14T23:05:39.249Z,19.03
2019-01-14T23:08:08.496Z,13.93
2019-01-14T23:10:37.758Z,9.70
2019-01-14T23:13:07.001Z,30.23
2019-01-14T23:15:36.198Z,20.17
2019-01-14T23:18:05.510Z,17.67
2019-01-14T23:20:34.810Z,18.63
2019-01-14T23:23:04.124Z,14.30
2019-01-14T23:25:33.379Z,12.80
2019-01-14T23:28:02.650Z,23.63
2019-01-14T23:30:31.902Z,22.90
2019-01-14T23:33:01.170Z,17.77
2019-01-14T23:35:30.413Z,25.83
2019-01-14T23:37:59.617Z,19.90
2019-01-14T23:40:28.877Z,15.97
2019-01-14T23:42:59.078Z,14.57
2019-01-14T23:45:28.490Z,21.33
2019-01-14T23:47:57.766Z,32.40
2019-01-14T23:50:27.014Z,14.23
2019-01-14T23:52:56.278Z,20.30
2019-01-14T23:55:25.459Z,16.17
2019-01-14T23:57:54.725Z,19.87
